createdAt,value
2022-11-26T00:00:37.932Z,0.00
2022-11-26T00:01:37.912Z,0.00
2022-11-26T00:02:37.996Z,0.00
2022-11-26T00:03:37.957Z,0.00
2022-11-26T00:04:38.080Z,0.00
2022-11-26T00:05:37.852Z,0.00
2022-11-26T00:06:37.882Z,0.00
2022-11-26T00:07:37.885Z,0.00
2022-11-26T00:08:37.832Z,0.00
2022-11-26T00:09:37.833Z,0.00
2022-11-26T00:10:37.821Z,0.00
2022-11-26T00:11:37.813Z,0.00
2022-11-26T00:12:37.783Z,0.00
2022-11-26T00:13:37.773Z,0.00
2022-11-26T00:14:38.183Z,0.00
2022-11-26T00:15:37.774Z,0.00
2022-11-26T00:16:37.806Z,0.00
2022-11-26T00:17:37.743Z,0.00
2022-11-26T00:18:37.734Z,0.00
2022-11-26T00:19:37.715Z,0.00
2022-11-26T00:20:37.724Z,0.00
2022-11-26T00:21:37.684Z,0.00
2022-11-26T00:22:37.682Z,0.00
2022-11-26T00:23:37.704Z,0.00
2022-11-26T00:24:37.995Z,0.00
2022-11-26T00:25:37.657Z,0.00
2022-11-26T00:26:37.655Z,0.00
2022-11-26T00:27:37.624Z,0.00
2022-11-26T00:28:37.644Z,0.00
2022-11-26T00:29:37.624Z,0.00
2022-11-26T00:30:37.604Z,0.00
2022-11-26T00:31:37.648Z,0.00
2022-11-26T00:32:37.586Z,0.00
2022-11-26T00:33:37.586Z,0.00
2022-11-26T00:34:37.780Z,0.00
2022-11-26T00:35:37.565Z,0.00
2022-11-26T00:36:37.536Z,0.00
2022-11-26T00:37:37.536Z,0.00
2022-11-26T00:38:37.526Z,0.00
2022-11-26T00:39:37.526Z,0.00
2022-11-26T00:40:37.498Z,0.00
2022-11-26T00:41:37.497Z,0.00
2022-11-26T00:42:37.486Z,0.00
2022-11-26T00:43:37.458Z,0.00
2022-11-26T00:44:37.704Z,0.00
2022-11-26T00:45:37.504Z,0.00
2022-11-26T00:46:37.419Z,0.00
2022-11-26T00:47:37.436Z,0.00
2022-11-26T00:48:37.408Z,0.00
2022-11-26T00:49:37.418Z,0.00
2022-11-26T00:50:37.397Z,0.00
2022-11-26T00:51:37.387Z,0.00
2022-11-26T00:52:37.367Z,0.00
2022-11-26T00:53:37.368Z,0.00
2022-11-26T00:54:37.599Z,0.00
2022-11-26T00:55:37.358Z,0.00
2022-11-26T00:56:38.239Z,0.00
2022-11-26T00:57:37.318Z,0.00
2022-11-26T00:58:37.297Z,0.00
2022-11-26T00:59:37.299Z,0.00
2022-11-26T01:00:37.327Z,0.00
2022-11-26T01:01:37.341Z,0.00
2022-11-26T01:02:37.349Z,0.00
2022-11-26T01:03:37.247Z,0.00
2022-11-26T01:04:37.505Z,0.00
2022-11-26T01:05:37.248Z,0.00
2022-11-26T01:06:37.225Z,0.00
2022-11-26T01:07:37.296Z,0.00
2022-11-26T01:08:37.200Z,0.00
2022-11-26T01:09:37.199Z,0.00
2022-11-26T01:10:37.170Z,0.00
2022-11-26T01:11:37.201Z,0.00
2022-11-26T01:12:37.150Z,0.00
2022-11-26T01:13:37.150Z,0.00
2022-11-26T01:14:37.433Z,0.00
2022-11-26T01:15:37.121Z,0.00
2022-11-26T01:16:37.167Z,0.00
2022-11-26T01:17:37.113Z,0.00
2022-11-26T01:18:37.080Z,0.00
2022-11-26T01:19:37.093Z,0.00
2022-11-26T01:20:37.071Z,0.00
2022-11-26T01:21:37.081Z,0.00
2022-11-26T01:22:37.052Z,0.00
2022-11-26T01:23:37.033Z,0.00
2022-11-26T01:24:37.374Z,0.00
2022-11-26T01:25:37.012Z,0.00
2022-11-26T01:26:37.023Z,0.00
2022-11-26T01:27:37.093Z,0.00
2022-11-26T01:28:36.985Z,0.00
2022-11-26T01:29:36.972Z,0.00
2022-11-26T01:30:36.972Z,0.00
2022-11-26T01:31:36.998Z,0.00
2022-11-26T01:32:36.963Z,0.00
2022-11-26T01:33:36.945Z,0.00
2022-11-26T01:34:37.292Z,0.00
2022-11-26T01:35:36.914Z,0.00
2022-11-26T01:36:36.918Z,0.00
2022-11-26T01:37:36.914Z,0.00
2022-11-26T01:38:36.874Z,0.00
2022-11-26T01:39:36.865Z,0.00
2022-11-26T01:40:36.883Z,0.00
2022-11-26T01:41:36.845Z,0.00
2022-11-26T01:42:36.852Z,0.00
2022-11-26T01:43:36.834Z,0.00
2022-11-26T01:44:37.268Z,0.00
2022-11-26T01:45:36.862Z,0.00
2022-11-26T01:46:36.794Z,0.00
2022-11-26T01:47:36.792Z,0.00
2022-11-26T01:48:36.773Z,0.00
2022-11-26T01:49:36.787Z,0.00
2022-11-26T01:50:36.758Z,0.00
2022-11-26T01:51:36.746Z,0.00
2022-11-26T01:52:36.744Z,0.00
2022-11-26T01:53:36.754Z,0.00
2022-11-26T01:54:36.993Z,0.00
2022-11-26T01:55:36.737Z,0.00
2022-11-26T01:56:36.677Z,0.00
2022-11-26T01:57:36.676Z,0.00
2022-11-26T01:58:39.821Z,0.00
2022-11-26T01:59:36.687Z,0.00
2022-11-26T02:00:36.643Z,0.00
2022-11-26T02:01:36.745Z,0.00
2022-11-26T02:02:36.691Z,0.00
2022-11-26T02:03:36.617Z,0.00
2022-11-26T02:04:36.825Z,0.00
2022-11-26T02:05:36.605Z,0.00
2022-11-26T02:06:36.595Z,0.00
2022-11-26T02:07:36.651Z,0.00
2022-11-26T02:08:36.558Z,0.00
2022-11-26T02:09:36.567Z,0.00
2022-11-26T02:10:36.555Z,0.00
2022-11-26T02:11:36.545Z,0.00
2022-11-26T02:12:36.527Z,0.00
2022-11-26T02:13:36.508Z,0.00
2022-11-26T02:14:36.926Z,0.00
2022-11-26T02:15:36.498Z,0.00
2022-11-26T02:16:36.599Z,0.00
2022-11-26T02:17:36.499Z,0.00
2022-11-26T02:18:36.469Z,0.00
2022-11-26T02:19:36.468Z,0.00
2022-11-26T02:20:36.428Z,0.00
2022-11-26T02:21:36.449Z,0.00
2022-11-26T02:22:36.420Z,0.00
2022-11-26T02:23:36.409Z,0.00
2022-11-26T02:24:36.909Z,0.00
2022-11-26T02:25:36.380Z,0.00
2022-11-26T02:26:36.391Z,0.00
2022-11-26T02:27:36.381Z,0.00
2022-11-26T02:28:36.351Z,0.00
2022-11-26T02:29:36.359Z,0.00
2022-11-26T02:30:36.323Z,0.00
2022-11-26T02:31:36.366Z,0.00
2022-11-26T02:32:36.311Z,0.00
2022-11-26T02:33:36.331Z,0.00
2022-11-26T02:34:38.028Z,0.00
2022-11-26T02:35:36.262Z,0.00
2022-11-26T02:36:36.234Z,0.00
2022-11-26T02:37:36.234Z,0.00
2022-11-26T02:38:36.213Z,0.00
2022-11-26T02:39:36.224Z,0.00
2022-11-26T02:40:36.195Z,0.00
2022-11-26T02:41:36.205Z,0.00
2022-11-26T02:42:36.171Z,0.00
2022-11-26T02:43:36.165Z,0.00
2022-11-26T02:44:36.446Z,0.00
2022-11-26T02:45:36.209Z,0.00
2022-11-26T02:46:36.145Z,0.00
2022-11-26T02:47:36.122Z,0.00
2022-11-26T02:48:36.106Z,0.00
2022-11-26T02:49:36.096Z,0.00
2022-11-26T02:50:36.091Z,0.00
2022-11-26T02:51:36.084Z,0.00
2022-11-26T02:52:36.077Z,0.00
2022-11-26T02:53:36.056Z,0.00
2022-11-26T02:54:36.455Z,0.00
2022-11-26T02:55:36.037Z,0.00
2022-11-26T02:56:36.024Z,0.00
2022-11-26T02:57:36.017Z,0.00
2022-11-26T02:58:36.016Z,0.00
2022-11-26T02:59:35.995Z,0.00
2022-11-26T03:00:35.998Z,0.00
2022-11-26T03:01:36.031Z,0.00
2022-11-26T03:02:35.956Z,0.00
2022-11-26T03:03:36.042Z,0.00
2022-11-26T03:04:36.212Z,0.00
2022-11-26T03:05:35.935Z,0.00
2022-11-26T03:06:35.917Z,0.00
2022-11-26T03:07:36.036Z,0.00
2022-11-26T03:08:35.927Z,0.00
2022-11-26T03:09:35.890Z,0.00
2022-11-26T03:10:35.877Z,0.00
2022-11-26T03:11:35.900Z,0.00
2022-11-26T03:12:35.857Z,0.00
2022-11-26T03:13:35.847Z,0.00
2022-11-26T03:14:36.040Z,0.00
2022-11-26T03:15:35.835Z,0.00
2022-11-26T03:16:35.847Z,0.00
2022-11-26T03:17:35.807Z,0.00
2022-11-26T03:18:35.818Z,0.00
2022-11-26T03:19:35.781Z,0.00
2022-11-26T03:20:35.769Z,0.00
2022-11-26T03:21:35.760Z,0.00
2022-11-26T03:22:35.748Z,0.00
2022-11-26T03:23:35.740Z,0.00
2022-11-26T03:24:35.948Z,0.00
2022-11-26T03:25:35.720Z,0.00
2022-11-26T03:26:35.701Z,0.00
2022-11-26T03:27:35.698Z,0.00
2022-11-26T03:28:35.681Z,0.00
2022-11-26T03:29:35.695Z,0.00
2022-11-26T03:30:35.680Z,0.00
2022-11-26T03:31:35.710Z,0.00
2022-11-26T03:32:35.641Z,0.00
2022-11-26T03:33:35.631Z,0.00
2022-11-26T03:34:35.854Z,0.00
2022-11-26T03:35:35.630Z,0.00
2022-11-26T03:36:35.602Z,0.00
2022-11-26T03:37:35.591Z,0.00
2022-11-26T03:38:35.572Z,0.00
2022-11-26T03:39:35.571Z,0.00
2022-11-26T03:40:35.571Z,0.00
2022-11-26T03:41:35.553Z,0.00
2022-11-26T03:42:35.534Z,0.00
2022-11-26T03:43:35.536Z,0.00
2022-11-26T03:44:35.666Z,0.00
2022-11-26T03:45:35.549Z,0.00
2022-11-26T03:46:35.493Z,0.00
2022-11-26T03:47:35.485Z,0.00
2022-11-26T03:48:35.484Z,0.00
2022-11-26T03:49:35.465Z,0.00
2022-11-26T03:50:35.451Z,0.00
2022-11-26T03:51:35.443Z,0.00
2022-11-26T03:52:35.433Z,0.00
2022-11-26T03:53:35.444Z,0.00
2022-11-26T03:54:35.599Z,0.00
2022-11-26T03:55:35.405Z,0.00
2022-11-26T03:56:35.386Z,0.00
2022-11-26T03:57:35.394Z,0.00
2022-11-26T03:58:35.365Z,0.00
2022-11-26T03:59:35.364Z,0.00
2022-11-26T04:00:35.344Z,0.00
2022-11-26T04:01:35.496Z,0.00
2022-11-26T04:02:35.519Z,0.00
2022-11-26T04:03:35.322Z,0.00
2022-11-26T04:04:35.402Z,0.00
2022-11-26T04:05:35.295Z,0.00
2022-11-26T04:06:35.283Z,0.00
2022-11-26T04:07:35.332Z,0.00
2022-11-26T04:08:35.276Z,0.00
2022-11-26T04:09:35.255Z,0.00
2022-11-26T04:10:35.237Z,0.00
2022-11-26T04:11:35.254Z,0.00
2022-11-26T04:12:35.217Z,0.00
2022-11-26T04:13:35.232Z,0.00
2022-11-26T04:14:35.292Z,0.00
2022-11-26T04:15:35.206Z,0.00
2022-11-26T04:16:35.243Z,0.00
2022-11-26T04:17:35.177Z,0.00
2022-11-26T04:18:35.157Z,0.00
2022-11-26T04:19:35.166Z,0.00
2022-11-26T04:20:35.137Z,0.00
2022-11-26T04:21:35.127Z,0.00
2022-11-26T04:22:35.108Z,0.00
2022-11-26T04:23:35.128Z,0.00
2022-11-26T04:24:35.098Z,0.00
2022-11-26T04:25:35.087Z,0.00
2022-11-26T04:26:35.094Z,0.00
2022-11-26T04:27:35.065Z,0.00
2022-11-26T04:28:35.051Z,0.00
2022-11-26T04:29:35.048Z,0.00
2022-11-26T04:30:35.029Z,0.00
2022-11-26T04:31:35.050Z,0.00
2022-11-26T04:32:35.008Z,0.00
2022-11-26T04:33:35.000Z,0.00
2022-11-26T04:34:34.988Z,0.00
2022-11-26T04:35:34.990Z,0.00
2022-11-26T04:36:34.966Z,0.00
2022-11-26T04:37:34.959Z,0.00
2022-11-26T04:38:34.949Z,0.00
2022-11-26T04:39:34.969Z,0.00
2022-11-26T04:40:34.928Z,0.00
2022-11-26T04:41:34.920Z,0.00
2022-11-26T04:42:34.920Z,0.00
2022-11-26T04:43:34.898Z,0.00
2022-11-26T04:44:34.892Z,0.00
2022-11-26T04:45:34.903Z,0.00
2022-11-26T04:46:34.871Z,0.00
2022-11-26T04:47:37.748Z,0.00
2022-11-26T04:48:35.849Z,0.00
2022-11-26T04:49:34.832Z,0.00
2022-11-26T04:50:35.811Z,0.00
2022-11-26T04:51:34.813Z,0.00
2022-11-26T04:52:35.791Z,0.00
2022-11-26T04:53:34.799Z,0.00
2022-11-26T04:54:35.640Z,0.00
2022-11-26T04:55:34.772Z,0.00
2022-11-26T04:56:35.482Z,0.00
2022-11-26T04:57:34.760Z,0.00
2022-11-26T04:58:35.464Z,0.00
2022-11-26T04:59:34.742Z,0.00
2022-11-26T05:00:36.212Z,0.00
2022-11-26T05:01:34.773Z,0.00
2022-11-26T05:02:35.511Z,0.00
2022-11-26T05:03:34.683Z,0.00
2022-11-26T05:04:35.478Z,0.00
2022-11-26T05:05:34.671Z,0.00
2022-11-26T05:06:35.343Z,0.00
2022-11-26T05:07:34.737Z,0.00
2022-11-26T05:08:35.363Z,0.00
2022-11-26T05:09:34.622Z,0.00
2022-11-26T05:10:35.341Z,0.00
2022-11-26T05:11:34.602Z,0.00
2022-11-26T05:12:34.634Z,0.00
2022-11-26T05:13:34.603Z,0.00
2022-11-26T05:14:34.573Z,0.00
2022-11-26T05:15:34.554Z,0.00
2022-11-26T05:16:34.619Z,0.00
2022-11-26T05:17:34.535Z,0.00
2022-11-26T05:18:34.544Z,0.00
2022-11-26T05:19:34.519Z,0.00
2022-11-26T05:20:34.508Z,0.00
2022-11-26T05:21:34.488Z,0.00
2022-11-26T05:22:34.485Z,0.00
2022-11-26T05:23:34.484Z,0.00
2022-11-26T05:24:34.464Z,0.00
2022-11-26T05:25:34.445Z,0.00
2022-11-26T05:26:34.445Z,0.00
2022-11-26T05:27:34.426Z,0.00
2022-11-26T05:28:34.435Z,0.00
2022-11-26T05:29:34.406Z,0.00
2022-11-26T05:30:34.396Z,0.00
2022-11-26T05:31:34.457Z,0.00
2022-11-26T05:32:34.383Z,0.00
2022-11-26T05:33:34.374Z,0.00
2022-11-26T05:34:34.411Z,0.00
2022-11-26T05:35:34.343Z,0.00
2022-11-26T05:36:34.357Z,0.00
2022-11-26T05:37:34.323Z,0.00
2022-11-26T05:38:34.321Z,0.00
2022-11-26T05:39:34.297Z,0.00
2022-11-26T05:40:34.287Z,0.00
2022-11-26T05:41:34.297Z,0.00
2022-11-26T05:42:34.274Z,0.00
2022-11-26T05:43:34.257Z,0.00
2022-11-26T05:44:34.255Z,0.00
2022-11-26T05:45:34.332Z,0.00
2022-11-26T05:46:34.230Z,0.00
2022-11-26T05:47:34.246Z,0.00
2022-11-26T05:48:34.208Z,0.00
2022-11-26T05:49:34.197Z,0.00
2022-11-26T05:50:34.187Z,0.00
2022-11-26T05:51:34.178Z,0.00
2022-11-26T05:52:34.168Z,0.00
2022-11-26T05:53:34.159Z,0.00
2022-11-26T05:54:34.150Z,0.00
2022-11-26T05:55:34.136Z,0.00
2022-11-26T05:56:34.126Z,0.00
2022-11-26T05:57:34.139Z,0.00
2022-11-26T05:58:34.108Z,0.00
2022-11-26T05:59:34.087Z,0.00
2022-11-26T06:00:34.078Z,0.00
2022-11-26T06:01:34.066Z,0.00
2022-11-26T06:02:34.169Z,0.00
2022-11-26T06:03:34.092Z,0.00
2022-11-26T06:04:34.050Z,0.00
2022-11-26T06:05:34.027Z,0.00
2022-11-26T06:06:34.019Z,0.00
2022-11-26T06:07:34.148Z,0.00
2022-11-26T06:08:34.009Z,0.00
2022-11-26T06:09:33.980Z,0.00
2022-11-26T06:10:33.978Z,0.00
2022-11-26T06:11:33.959Z,0.00
2022-11-26T06:12:33.969Z,0.00
2022-11-26T06:13:33.941Z,0.00
2022-11-26T06:14:33.949Z,0.00
2022-11-26T06:15:33.934Z,0.00
2022-11-26T06:16:33.980Z,0.00
2022-11-26T06:17:33.893Z,0.00
2022-11-26T06:18:33.915Z,0.00
2022-11-26T06:19:33.880Z,0.00
2022-11-26T06:20:33.870Z,4.00
2022-11-26T06:21:33.851Z,4.00
2022-11-26T06:22:33.861Z,0.00
2022-11-26T06:23:33.833Z,4.00
2022-11-26T06:24:33.828Z,4.00
2022-11-26T06:25:33.811Z,4.00
2022-11-26T06:26:33.810Z,8.00
2022-11-26T06:27:33.792Z,4.00
2022-11-26T06:28:33.819Z,8.00
2022-11-26T06:29:33.773Z,8.00
2022-11-26T06:30:33.762Z,12.00
2022-11-26T06:31:33.800Z,12.00
2022-11-26T06:32:33.743Z,16.00
2022-11-26T06:33:33.730Z,16.00
2022-11-26T06:34:33.721Z,20.00
2022-11-26T06:35:33.710Z,20.00
2022-11-26T06:36:33.701Z,24.00
2022-11-26T06:37:33.685Z,32.00
2022-11-26T06:38:33.679Z,36.00
2022-11-26T06:39:33.664Z,40.00
2022-11-26T06:40:33.671Z,40.00
2022-11-26T06:41:33.662Z,48.00
2022-11-26T06:42:33.641Z,52.00
2022-11-26T06:43:33.624Z,60.00
2022-11-26T06:44:33.612Z,64.00
2022-11-26T06:45:33.630Z,76.00
2022-11-26T06:46:33.595Z,80.00
2022-11-26T06:47:33.584Z,92.00
2022-11-26T06:48:33.593Z,100.00
2022-11-26T06:49:33.607Z,112.00
2022-11-26T06:50:33.554Z,120.00
2022-11-26T06:51:33.535Z,128.00
2022-11-26T06:52:33.532Z,144.00
2022-11-26T06:53:33.532Z,152.00
2022-11-26T06:54:33.546Z,164.00
2022-11-26T06:55:33.497Z,172.00
2022-11-26T06:56:33.494Z,184.00
2022-11-26T06:57:33.483Z,196.00
2022-11-26T06:58:33.466Z,208.00
2022-11-26T06:59:33.452Z,224.00
2022-11-26T07:00:33.454Z,236.00
2022-11-26T07:01:33.689Z,248.00
2022-11-26T07:02:33.523Z,260.00
2022-11-26T07:03:33.632Z,272.00
2022-11-26T07:04:33.404Z,284.00
2022-11-26T07:05:33.385Z,296.00
2022-11-26T07:06:33.384Z,312.00
2022-11-26T07:07:33.421Z,324.00
2022-11-26T07:08:33.375Z,336.00
2022-11-26T07:09:33.355Z,352.00
2022-11-26T07:10:33.335Z,364.00
2022-11-26T07:11:33.327Z,376.00
2022-11-26T07:12:33.347Z,392.00
2022-11-26T07:13:33.308Z,404.00
2022-11-26T07:14:33.313Z,412.00
2022-11-26T07:15:33.282Z,424.00
2022-11-26T07:16:33.342Z,436.00
2022-11-26T07:17:33.264Z,448.00
2022-11-26T07:18:33.255Z,460.00
2022-11-26T07:19:33.255Z,472.00
2022-11-26T07:20:33.244Z,488.00
2022-11-26T07:21:33.215Z,496.00
2022-11-26T07:22:33.220Z,512.00
2022-11-26T07:23:33.205Z,520.00
2022-11-26T07:24:33.205Z,548.00
2022-11-26T07:25:33.177Z,604.00
2022-11-26T07:26:33.166Z,588.00
2022-11-26T07:27:33.156Z,560.00
2022-11-26T07:28:33.167Z,552.00
2022-11-26T07:29:33.187Z,552.00
2022-11-26T07:30:33.130Z,560.00
2022-11-26T07:31:33.137Z,564.00
2022-11-26T07:32:33.107Z,576.00
2022-11-26T07:33:33.108Z,604.00
2022-11-26T07:34:33.087Z,640.00
2022-11-26T07:35:33.088Z,652.00
2022-11-26T07:36:33.070Z,616.00
2022-11-26T07:37:33.048Z,564.00
2022-11-26T07:38:33.047Z,548.00
2022-11-26T07:39:33.028Z,576.00
2022-11-26T07:40:33.045Z,592.00
2022-11-26T07:41:33.008Z,604.00
2022-11-26T07:42:33.006Z,612.00
2022-11-26T07:43:32.987Z,584.00
2022-11-26T07:44:32.977Z,568.00
2022-11-26T07:45:32.977Z,560.00
2022-11-26T07:46:32.997Z,576.00
2022-11-26T07:47:32.945Z,620.00
2022-11-26T07:48:32.949Z,664.00
2022-11-26T07:49:32.937Z,696.00
2022-11-26T07:50:32.916Z,728.00
2022-11-26T07:51:32.919Z,776.00
2022-11-26T07:52:32.898Z,804.00
2022-11-26T07:53:32.878Z,832.00
2022-11-26T07:54:32.877Z,872.00
2022-11-26T07:55:32.858Z,936.00
2022-11-26T07:56:32.873Z,940.00
2022-11-26T07:57:32.838Z,856.00
2022-11-26T07:58:32.850Z,752.00
2022-11-26T07:59:32.819Z,752.00
2022-11-26T08:00:32.809Z,788.00
2022-11-26T08:01:32.866Z,844.00
2022-11-26T08:02:32.814Z,908.00
2022-11-26T08:03:32.777Z,940.00
2022-11-26T08:04:32.788Z,956.00
2022-11-26T08:05:32.751Z,968.00
2022-11-26T08:06:32.748Z,968.00
2022-11-26T08:07:32.774Z,1008.00
2022-11-26T08:08:32.729Z,1068.00
2022-11-26T08:09:32.722Z,1136.00
2022-11-26T08:10:32.701Z,1244.00
2022-11-26T08:11:32.691Z,1396.00
2022-11-26T08:12:32.683Z,1512.00
2022-11-26T08:13:32.670Z,1548.00
2022-11-26T08:14:32.679Z,1576.00
2022-11-26T08:15:32.641Z,1560.00
2022-11-26T08:16:32.813Z,1516.00
2022-11-26T08:17:32.621Z,1412.00
2022-11-26T08:18:32.638Z,1356.00
2022-11-26T08:19:32.603Z,1488.00
2022-11-26T08:20:32.598Z,1584.00
2022-11-26T08:21:32.581Z,1604.00
2022-11-26T08:22:32.598Z,1800.00
2022-11-26T08:23:32.561Z,2028.00
2022-11-26T08:24:32.560Z,2032.00
2022-11-26T08:25:32.542Z,2048.00
2022-11-26T08:26:37.213Z,1972.00
2022-11-26T08:27:33.852Z,1960.00
2022-11-26T08:28:32.511Z,1892.00
2022-11-26T08:29:32.493Z,1728.00
2022-11-26T08:30:32.493Z,1548.00
2022-11-26T08:31:32.515Z,1532.00
2022-11-26T08:32:32.490Z,1488.00
2022-11-26T08:33:32.453Z,1400.00
2022-11-26T08:34:32.451Z,1352.00
2022-11-26T08:35:59.110Z,1360.00
2022-11-26T08:36:33.423Z,1344.00
2022-11-26T08:37:32.430Z,1300.00
2022-11-26T08:38:32.404Z,1288.00
2022-11-26T08:39:32.393Z,1348.00
2022-11-26T08:40:32.383Z,1552.00
2022-11-26T08:41:32.374Z,1748.00
2022-11-26T08:42:32.414Z,1884.00
2022-11-26T08:44:04.130Z,1936.00
2022-11-26T08:44:33.344Z,1976.00
2022-11-26T08:45:32.323Z,2032.00
2022-11-26T08:46:32.378Z,2120.00
2022-11-26T08:47:32.305Z,2144.00
2022-11-26T08:48:32.302Z,2088.00
2022-11-26T08:49:32.285Z,2088.00
2022-11-26T08:50:32.284Z,2168.00
2022-11-26T08:51:32.264Z,2228.00
2022-11-26T08:52:32.255Z,2188.00
2022-11-26T08:53:32.244Z,2020.00
2022-11-26T08:54:32.255Z,1916.00
2022-11-26T08:55:58.791Z,1808.00
2022-11-26T08:56:33.215Z,1720.00
2022-11-26T08:57:32.194Z,1644.00
2022-11-26T08:58:32.204Z,1692.00
2022-11-26T08:59:32.195Z,1788.00
2022-11-26T09:00:32.183Z,1912.00
2022-11-26T09:01:32.351Z,2056.00
2022-11-26T09:02:32.226Z,2224.00
2022-11-26T09:03:32.144Z,2388.00
2022-11-26T09:04:32.147Z,2576.00
2022-11-26T09:05:32.116Z,2760.00
2022-11-26T09:06:32.106Z,2840.00
2022-11-26T09:07:32.162Z,2812.00
2022-11-26T09:08:32.087Z,2740.00
2022-11-26T09:09:32.106Z,2672.00
2022-11-26T09:10:32.065Z,2600.00
2022-11-26T09:11:32.076Z,2532.00
2022-11-26T09:12:32.047Z,2456.00
2022-11-26T09:13:32.045Z,2324.00
2022-11-26T09:14:32.078Z,2164.00
2022-11-26T09:15:32.016Z,2016.00
2022-11-26T09:16:32.061Z,1892.00
2022-11-26T09:17:32.030Z,1800.00
2022-11-26T09:18:31.977Z,1716.00
2022-11-26T09:19:31.988Z,1656.00
2022-11-26T09:20:31.957Z,1628.00
2022-11-26T09:21:31.957Z,1620.00
2022-11-26T09:22:31.937Z,1616.00
2022-11-26T09:23:31.928Z,1636.00
2022-11-26T09:24:31.938Z,1660.00
2022-11-26T09:25:31.910Z,1708.00
2022-11-26T09:26:31.896Z,1712.00
2022-11-26T09:27:31.908Z,1724.00
2022-11-26T09:28:31.869Z,1732.00
2022-11-26T09:29:31.867Z,1740.00
2022-11-26T09:30:31.901Z,1760.00
2022-11-26T09:31:31.928Z,1772.00
2022-11-26T09:32:34.319Z,1784.00
2022-11-26T09:33:31.838Z,1808.00
2022-11-26T09:34:31.842Z,1820.00
2022-11-26T09:35:31.806Z,1832.00
2022-11-26T09:36:31.796Z,1844.00
2022-11-26T09:37:31.787Z,1848.00
2022-11-26T09:38:31.760Z,1864.00
2022-11-26T09:39:31.793Z,1880.00
2022-11-26T09:40:31.760Z,1884.00
2022-11-26T09:41:31.740Z,1880.00
2022-11-26T09:42:31.724Z,1876.00
2022-11-26T09:43:31.720Z,1876.00
2022-11-26T09:44:31.702Z,1880.00
2022-11-26T09:45:31.763Z,1880.00
2022-11-26T09:46:40.964Z,1880.00
2022-11-26T09:47:32.680Z,1888.00
2022-11-26T09:48:31.661Z,1908.00
2022-11-26T09:49:31.650Z,1940.00
2022-11-26T09:50:31.652Z,1988.00
2022-11-26T09:51:31.632Z,2056.00
2022-11-26T09:52:31.642Z,2136.00
2022-11-26T09:53:31.611Z,2160.00
2022-11-26T09:54:31.603Z,2092.00
2022-11-26T09:55:31.591Z,2076.00
2022-11-26T09:56:31.589Z,2116.00
2022-11-26T09:57:31.597Z,2140.00
2022-11-26T09:58:31.573Z,2192.00
2022-11-26T09:59:31.552Z,2196.00
2022-11-26T10:00:31.534Z,2340.00
2022-11-26T10:01:31.626Z,2364.00
2022-11-26T10:02:31.557Z,2424.00
2022-11-26T10:03:31.505Z,2512.00
2022-11-26T10:04:31.509Z,2528.00
2022-11-26T10:05:31.492Z,2440.00
2022-11-26T10:06:31.473Z,2424.00
2022-11-26T10:07:31.508Z,2396.00
2022-11-26T10:08:31.451Z,2404.00
2022-11-26T10:09:31.474Z,2408.00
2022-11-26T10:10:31.431Z,2408.00
2022-11-26T10:11:31.425Z,2416.00
2022-11-26T10:12:31.434Z,2420.00
2022-11-26T10:13:31.404Z,2448.00
2022-11-26T10:14:31.427Z,2484.00
2022-11-26T10:15:31.391Z,2504.00
2022-11-26T10:16:31.395Z,2532.00
2022-11-26T10:17:31.362Z,2560.00
2022-11-26T10:18:31.345Z,2572.00
2022-11-26T10:19:31.356Z,2616.00
2022-11-26T10:20:31.324Z,2640.00
2022-11-26T10:21:57.010Z,2692.00
2022-11-26T10:22:32.295Z,2772.00
2022-11-26T10:23:31.305Z,2860.00
2022-11-26T10:24:31.306Z,2940.00
2022-11-26T10:25:31.275Z,2992.00
2022-11-26T10:26:31.262Z,2824.00
2022-11-26T10:27:31.265Z,2848.00
2022-11-26T10:28:31.235Z,3060.00
2022-11-26T10:29:31.237Z,3280.00
2022-11-26T10:30:31.216Z,3624.00
2022-11-26T10:31:31.258Z,3960.00
2022-11-26T10:32:31.213Z,4480.00
2022-11-26T10:33:31.186Z,4816.00
2022-11-26T10:34:35.949Z,4584.00
2022-11-26T10:35:32.166Z,4620.00
2022-11-26T10:36:31.175Z,5156.00
2022-11-26T10:37:31.153Z,5508.00
2022-11-26T10:38:31.135Z,5316.00
2022-11-26T10:39:31.156Z,4680.00
2022-11-26T10:40:31.114Z,4116.00
2022-11-26T10:41:31.129Z,3976.00
2022-11-26T10:42:31.088Z,4320.00
2022-11-26T10:43:31.107Z,4448.00
2022-11-26T10:44:31.068Z,4596.00
2022-11-26T10:45:31.066Z,4820.00
2022-11-26T10:46:31.086Z,4836.00
2022-11-26T10:47:31.047Z,5032.00
2022-11-26T10:48:31.032Z,5252.00
2022-11-26T10:49:31.019Z,5304.00
2022-11-26T10:50:47.890Z,5476.00
2022-11-26T10:51:32.009Z,6036.00
2022-11-26T10:52:30.991Z,6384.00
2022-11-26T10:53:30.979Z,6512.00
2022-11-26T10:54:30.962Z,6564.00
2022-11-26T10:55:30.956Z,6152.00
2022-11-26T10:56:30.958Z,5640.00
2022-11-26T10:57:30.930Z,4928.00
2022-11-26T10:58:30.919Z,3916.00
2022-11-26T10:59:30.918Z,3932.00
2022-11-26T11:00:30.925Z,4016.00
2022-11-26T11:01:30.931Z,4364.00
2022-11-26T11:02:31.039Z,4688.00
2022-11-26T11:04:06.082Z,5028.00
2022-11-26T11:04:31.852Z,5400.00
2022-11-26T11:05:30.860Z,5696.00
2022-11-26T11:06:30.839Z,5848.00
2022-11-26T11:07:30.912Z,5968.00
2022-11-26T11:08:30.830Z,6040.00
2022-11-26T11:09:30.810Z,6076.00
2022-11-26T11:10:30.800Z,6132.00
2022-11-26T11:11:30.791Z,6228.00
2022-11-26T11:12:30.773Z,6184.00
2022-11-26T11:13:30.763Z,6152.00
2022-11-26T11:14:30.760Z,6148.00
2022-11-26T11:15:30.743Z,6136.00
2022-11-26T11:16:30.792Z,6364.00
2022-11-26T11:17:30.730Z,6652.00
2022-11-26T11:18:30.703Z,6852.00
2022-11-26T11:19:30.701Z,7040.00
2022-11-26T11:20:30.711Z,7108.00
2022-11-26T11:21:30.677Z,7596.00
2022-11-26T11:22:30.665Z,8052.00
2022-11-26T11:24:00.077Z,8480.00
2022-11-26T11:24:31.651Z,9060.00
2022-11-26T11:25:30.683Z,8300.00
2022-11-26T11:26:30.655Z,9560.00
2022-11-26T11:27:30.616Z,11984.00
2022-11-26T11:28:30.653Z,12780.00
2022-11-26T11:29:30.615Z,13172.00
2022-11-26T11:30:30.622Z,12964.00
2022-11-26T11:31:30.624Z,14412.00
2022-11-26T11:32:30.575Z,15840.00
2022-11-26T11:33:30.547Z,16352.00
2022-11-26T11:34:30.535Z,15648.00
2022-11-26T11:35:30.533Z,15488.00
2022-11-26T11:36:30.524Z,12712.00
2022-11-26T11:37:30.525Z,16576.00
2022-11-26T11:38:30.493Z,19584.00
2022-11-26T11:39:30.495Z,20736.00
2022-11-26T11:40:30.480Z,21344.00
2022-11-26T11:41:30.497Z,22176.00
2022-11-26T11:42:30.467Z,22848.00
2022-11-26T11:43:30.448Z,20608.00
2022-11-26T11:44:30.438Z,21536.00
2022-11-26T11:45:30.448Z,22400.00
2022-11-26T11:46:30.409Z,22624.00
2022-11-26T11:47:30.448Z,23328.00
2022-11-26T11:48:30.399Z,23712.00
2022-11-26T11:49:30.396Z,27808.00
2022-11-26T11:50:30.360Z,30624.00
2022-11-26T11:51:30.358Z,32576.00
2022-11-26T11:52:30.361Z,33056.00
2022-11-26T11:53:30.340Z,32000.00
2022-11-26T11:54:30.331Z,31200.00
2022-11-26T11:55:30.311Z,7108.00
2022-11-26T11:56:30.300Z,7284.00
2022-11-26T11:57:30.293Z,10784.00
2022-11-26T11:58:30.299Z,18176.00
2022-11-26T11:59:30.272Z,24736.00
2022-11-26T12:00:30.276Z,31424.00
2022-11-26T12:01:30.261Z,30272.00
2022-11-26T12:02:30.266Z,29536.00
2022-11-26T12:03:30.224Z,27808.00
2022-11-26T12:04:30.269Z,28224.00
2022-11-26T12:05:30.204Z,16800.00
2022-11-26T12:06:30.193Z,18368.00
2022-11-26T12:07:30.237Z,15488.00
2022-11-26T12:08:30.173Z,25888.00
2022-11-26T12:09:30.197Z,28704.00
2022-11-26T12:10:35.277Z,28832.00
2022-11-26T12:11:31.144Z,28832.00
2022-11-26T12:12:30.127Z,26624.00
2022-11-26T12:13:30.118Z,22112.00
2022-11-26T12:14:30.134Z,10656.00
2022-11-26T12:15:30.135Z,8492.00
2022-11-26T12:16:30.172Z,6856.00
2022-11-26T12:17:33.236Z,9500.00
2022-11-26T12:18:30.069Z,13100.00
2022-11-26T12:19:30.059Z,20512.00
2022-11-26T12:20:30.077Z,33472.00
2022-11-26T12:21:30.038Z,9452.00
2022-11-26T12:22:30.028Z,6420.00
2022-11-26T12:23:30.017Z,12116.00
2022-11-26T12:24:30.002Z,21408.00
2022-11-26T12:25:35.006Z,13952.00
2022-11-26T12:26:31.010Z,25984.00
2022-11-26T12:27:30.002Z,9576.00
2022-11-26T12:28:29.963Z,22784.00
2022-11-26T12:29:29.952Z,26560.00
2022-11-26T12:30:29.935Z,22528.00
2022-11-26T12:31:30.013Z,17472.00
2022-11-26T12:32:29.914Z,7672.00
2022-11-26T12:33:29.933Z,6160.00
2022-11-26T12:34:29.895Z,4332.00
2022-11-26T12:35:29.893Z,3384.00
2022-11-26T12:36:29.908Z,3060.00
2022-11-26T12:37:29.874Z,3052.00
2022-11-26T12:38:29.866Z,3536.00
2022-11-26T12:39:29.855Z,4464.00
2022-11-26T12:40:29.848Z,5288.00
2022-11-26T12:41:29.836Z,4476.00
2022-11-26T12:42:29.807Z,4800.00
2022-11-26T12:43:29.805Z,6056.00